createdAt,value
2019-04-10T00:00:47.566Z,99.90
2019-04-10T00:03:25.613Z,99.90
2019-04-10T00:05:46.459Z,99.90
2019-04-10T00:08:14.995Z,99.90
2019-04-10T00:10:43.762Z,99.90
2019-04-10T00:13:12.550Z,99.80
2019-04-10T00:15:41.016Z,99.90
2019-04-10T00:18:09.587Z,99.90
2019-04-10T00:20:38.250Z,99.90
2019-04-10T00:23:06.875Z,99.90
2019-04-10T00:25:35.546Z,99.90
2019-04-10T00:28:04.020Z,99.80
2019-04-10T00:30:33.277Z,99.90
2019-04-10T00:33:02.677Z,99.90
2019-04-10T00:35:31.696Z,99.90
2019-04-10T00:38:00.318Z,99.90
2019-04-10T00:40:28.808Z,99.90
2019-04-10T00:42:58.649Z,99.80
2019-04-10T00:45:27.511Z,99.60
2019-04-10T00:47:56.009Z,99.90
2019-04-10T00:50:24.574Z,99.90
2019-04-10T00:52:53.139Z,99.60
2019-04-10T00:55:21.851Z,99.70
2019-04-10T00:57:50.411Z,99.80
2019-04-10T01:00:19.635Z,99.90
2019-04-10T01:02:49.092Z,99.30
2019-04-10T01:05:17.800Z,99.20
2019-04-10T01:07:47.094Z,99.40
2019-04-10T01:10:16.350Z,98.90
2019-04-10T01:12:45.944Z,99.00
2019-04-10T01:15:14.750Z,99.20
2019-04-10T01:17:43.389Z,99.00
2019-04-10T01:20:12.175Z,99.10
2019-04-10T01:22:41.470Z,98.60
2019-04-10T01:25:10.942Z,98.80
2019-04-10T01:27:41.029Z,99.00
2019-04-10T01:30:29.126Z,98.90
2019-04-10T01:32:58.475Z,98.80
2019-04-10T01:35:27.147Z,99.80
2019-04-10T01:38:00.677Z,99.30
2019-04-10T01:40:26.759Z,99.00
2019-04-10T01:43:10.892Z,99.20
2019-04-10T01:45:25.618Z,99.90
2019-04-10T01:47:55.239Z,99.90
2019-04-10T01:50:23.954Z,99.90
2019-04-10T01:52:53.401Z,99.90
2019-04-10T01:55:25.714Z,99.90
2019-04-10T01:57:52.717Z,99.90
2019-04-10T02:00:23.675Z,99.90
2019-04-10T02:02:53.950Z,99.90
2019-04-10T02:05:22.856Z,99.90
2019-04-10T02:08:01.246Z,99.90
2019-04-10T02:10:21.819Z,99.90
2019-04-10T02:12:50.857Z,99.90
2019-04-10T02:15:19.765Z,99.90
2019-04-10T02:17:48.686Z,99.90
2019-04-10T02:20:17.578Z,99.90
2019-04-10T02:22:46.078Z,99.90
2019-04-10T02:25:15.782Z,99.90
2019-04-10T02:27:44.715Z,99.90
2019-04-10T02:30:16.399Z,99.90
2019-04-10T02:32:47.737Z,99.90
2019-04-10T02:35:17.648Z,99.90
2019-04-10T02:37:45.096Z,99.90
2019-04-10T02:40:15.050Z,99.90
2019-04-10T02:42:45.017Z,99.90
2019-04-10T02:45:14.749Z,99.90
2019-04-10T02:47:44.958Z,99.90
2019-04-10T02:50:14.359Z,99.90
2019-04-10T02:52:43.219Z,99.90
2019-04-10T02:55:12.122Z,99.90
2019-04-10T02:57:41.418Z,99.90
2019-04-10T03:00:12.750Z,99.90
2019-04-10T03:02:41.716Z,99.90
2019-04-10T03:05:10.933Z,99.90
2019-04-10T03:07:40.313Z,99.90
2019-04-10T03:10:21.652Z,99.90
2019-04-10T03:12:41.077Z,99.90
2019-04-10T03:15:12.359Z,99.90
2019-04-10T03:17:40.677Z,99.90
2019-04-10T03:20:10.018Z,99.90
2019-04-10T03:22:38.876Z,99.90
2019-04-10T03:25:08.882Z,99.90
2019-04-10T03:27:38.675Z,99.90
2019-04-10T03:30:10.081Z,99.90
2019-04-10T03:32:48.006Z,99.90
2019-04-10T03:35:21.062Z,99.90
2019-04-10T03:37:50.720Z,99.90
2019-04-10T03:40:19.574Z,99.90
2019-04-10T03:42:48.179Z,99.90
2019-04-10T03:45:16.714Z,99.90
2019-04-10T03:47:45.213Z,99.90
2019-04-10T03:50:14.257Z,99.90
2019-04-10T03:52:43.277Z,99.90
2019-04-10T03:55:12.557Z,99.90
2019-04-10T03:57:41.096Z,99.90
2019-04-10T04:00:12.028Z,99.90
2019-04-10T04:02:40.663Z,99.90
2019-04-10T04:05:10.367Z,99.90
2019-04-10T04:07:39.701Z,99.90
2019-04-10T04:10:09.446Z,99.90
2019-04-10T04:12:39.137Z,99.90
2019-04-10T04:15:09.415Z,99.90
2019-04-10T04:17:38.216Z,99.90
2019-04-10T04:20:06.994Z,99.90
2019-04-10T04:22:35.483Z,99.90
2019-04-10T04:25:04.721Z,99.90
2019-04-10T04:27:33.586Z,99.90
2019-04-10T04:30:02.134Z,99.90
2019-04-10T04:32:31.516Z,99.90
2019-04-10T04:35:00.143Z,99.90
2019-04-10T04:37:28.683Z,99.90
2019-04-10T04:39:58.290Z,99.90
2019-04-10T04:42:26.964Z,99.90
2019-04-10T04:44:56.276Z,99.90
2019-04-10T04:47:24.766Z,99.90
2019-04-10T04:49:54.326Z,99.80
2019-04-10T04:52:23.855Z,99.90
2019-04-10T04:54:53.294Z,99.90
2019-04-10T04:57:22.663Z,99.90
2019-04-10T04:59:51.251Z,99.90
2019-04-10T05:02:19.945Z,99.90
2019-04-10T05:04:49.396Z,99.90
2019-04-10T05:07:17.943Z,99.90
2019-04-10T05:09:46.568Z,99.90
2019-04-10T05:12:16.344Z,99.90
2019-04-10T05:14:46.077Z,99.90
2019-04-10T05:17:16.612Z,99.90
2019-04-10T05:19:44.991Z,99.90
2019-04-10T05:22:14.390Z,99.90
2019-04-10T05:24:42.951Z,99.90
2019-04-10T05:27:14.089Z,99.90
2019-04-10T05:29:43.082Z,99.90
2019-04-10T05:32:11.739Z,99.90
2019-04-10T05:34:40.437Z,99.90
2019-04-10T05:37:09.434Z,99.90
2019-04-10T05:39:43.157Z,99.90
2019-04-10T05:42:08.474Z,99.90
2019-04-10T05:44:38.149Z,99.90
2019-04-10T05:47:07.384Z,99.90
2019-04-10T05:49:37.066Z,99.80
2019-04-10T05:52:06.152Z,99.90
2019-04-10T05:54:35.321Z,98.90
2019-04-10T05:57:04.148Z,99.30
2019-04-10T05:59:32.726Z,99.10
2019-04-10T06:02:01.290Z,99.00
2019-04-10T06:04:29.835Z,98.40
2019-04-10T06:06:58.897Z,97.90
2019-04-10T06:09:27.483Z,97.40
2019-04-10T06:11:55.967Z,96.90
2019-04-10T06:14:24.434Z,97.10
2019-04-10T06:16:53.155Z,97.40
2019-04-10T06:19:22.043Z,96.30
2019-04-10T06:21:50.715Z,95.80
2019-04-10T06:24:20.508Z,95.20
2019-04-10T06:26:50.100Z,94.60
2019-04-10T06:29:19.184Z,94.60
2019-04-10T06:31:47.778Z,94.80
2019-04-10T06:34:18.601Z,94.90
2019-04-10T06:36:46.607Z,95.10
2019-04-10T06:39:16.312Z,94.90
2019-04-10T06:41:45.121Z,94.80
2019-04-10T06:44:14.045Z,93.90
2019-04-10T06:46:42.636Z,94.40
2019-04-10T06:49:12.265Z,95.00
2019-04-10T06:51:41.095Z,95.30
2019-04-10T06:54:11.444Z,95.70
2019-04-10T06:56:40.958Z,95.20
2019-04-10T06:59:09.795Z,95.70
2019-04-10T07:01:46.834Z,94.50
2019-04-10T07:04:09.912Z,93.40
2019-04-10T07:06:50.000Z,94.50
2019-04-10T07:09:11.655Z,94.00
2019-04-10T07:11:40.338Z,93.10
2019-04-10T07:14:12.593Z,92.70
2019-04-10T07:16:40.021Z,91.90
2019-04-10T07:19:11.513Z,91.00
2019-04-10T07:21:39.215Z,91.10
2019-04-10T07:24:09.462Z,89.10
2019-04-10T07:26:42.193Z,89.00
2019-04-10T07:29:08.960Z,89.70
2019-04-10T07:31:38.280Z,84.50
2019-04-10T07:34:08.805Z,83.70
2019-04-10T07:36:41.470Z,83.80
2019-04-10T07:39:08.118Z,81.40
2019-04-10T07:41:37.625Z,78.20
2019-04-10T07:44:06.502Z,79.60
2019-04-10T07:46:35.042Z,80.50
2019-04-10T07:49:03.617Z,79.30
2019-04-10T07:51:32.163Z,76.20
2019-04-10T07:54:01.841Z,77.00
2019-04-10T07:56:31.195Z,76.60
2019-04-10T07:59:00.537Z,78.00
2019-04-10T08:01:29.222Z,77.20
2019-04-10T08:03:57.767Z,78.90
2019-04-10T08:06:27.704Z,75.80
2019-04-10T08:08:56.282Z,76.50
2019-04-10T08:11:26.024Z,77.20
2019-04-10T08:13:56.066Z,78.10
2019-04-10T08:16:25.349Z,74.40
2019-04-10T08:18:54.174Z,73.00
2019-04-10T08:21:23.875Z,71.10
2019-04-10T08:23:53.049Z,72.50
2019-04-10T08:26:22.706Z,72.50
2019-04-10T08:28:51.753Z,71.40
2019-04-10T08:31:21.230Z,70.80
2019-04-10T08:33:50.571Z,70.10
2019-04-10T08:36:19.330Z,71.00
2019-04-10T08:38:48.933Z,71.10
2019-04-10T08:41:17.537Z,71.40
2019-04-10T08:43:46.175Z,70.90
2019-04-10T08:46:14.651Z,71.80
2019-04-10T08:48:43.433Z,73.40
2019-04-10T08:51:12.115Z,75.20
2019-04-10T08:53:40.827Z,73.80
2019-04-10T08:56:09.463Z,73.90
2019-04-10T08:58:39.077Z,73.80
2019-04-10T09:01:09.089Z,74.50
2019-04-10T09:03:37.777Z,73.30
2019-04-10T09:06:07.228Z,72.30
2019-04-10T09:08:37.046Z,73.60
2019-04-10T09:11:07.026Z,75.60
2019-04-10T09:13:36.744Z,73.70
2019-04-10T09:16:06.577Z,74.60
2019-04-10T09:18:35.364Z,73.20
2019-04-10T09:21:04.918Z,74.10
2019-04-10T09:23:42.851Z,75.10
2019-04-10T09:26:03.865Z,73.90
2019-04-10T09:28:32.766Z,73.80
2019-04-10T09:31:01.754Z,72.80
2019-04-10T09:33:32.222Z,71.40
2019-04-10T09:36:00.677Z,71.40
2019-04-10T09:38:29.246Z,71.40
2019-04-10T09:40:58.783Z,72.00
2019-04-10T09:43:27.391Z,70.30
2019-04-10T09:45:55.898Z,71.20
2019-04-10T09:48:24.474Z,69.00
2019-04-10T09:50:53.155Z,69.60
2019-04-10T09:53:24.530Z,67.90
2019-04-10T09:55:53.147Z,67.20
2019-04-10T09:58:21.918Z,65.50
2019-04-10T10:00:50.482Z,63.70
2019-04-10T10:03:19.468Z,65.60
2019-04-10T10:05:48.170Z,65.70
2019-04-10T10:08:16.727Z,63.90
2019-04-10T10:10:45.296Z,66.80
2019-04-10T10:13:15.023Z,66.40
2019-04-10T10:15:43.699Z,67.30
2019-04-10T10:18:13.018Z,63.40
2019-04-10T10:20:41.809Z,60.20
2019-04-10T10:23:10.270Z,58.30
2019-04-10T10:25:39.427Z,57.80
2019-04-10T10:28:09.083Z,55.00
2019-04-10T10:30:37.810Z,54.60
2019-04-10T10:33:07.644Z,51.50
2019-04-10T10:35:36.286Z,50.50
2019-04-10T10:38:05.406Z,50.20
2019-04-10T10:40:34.099Z,47.40
2019-04-10T10:43:02.706Z,45.90
2019-04-10T10:45:31.247Z,45.40
2019-04-10T10:47:59.878Z,42.10
2019-04-10T10:50:29.002Z,40.10
2019-04-10T10:52:57.677Z,38.00
2019-04-10T10:55:26.418Z,37.60
2019-04-10T10:57:55.418Z,35.40
2019-04-10T11:00:25.130Z,34.40
2019-04-10T11:02:54.027Z,34.00
2019-04-10T11:05:23.177Z,34.40
2019-04-10T11:07:53.023Z,34.00
2019-04-10T11:12:53.473Z,33.20
2019-04-10T11:15:22.398Z,34.40
2019-04-10T11:17:51.981Z,34.90
2019-04-10T11:20:20.722Z,35.90
2019-04-10T11:22:49.636Z,37.10
2019-04-10T11:25:19.513Z,38.20
2019-04-10T11:27:50.079Z,35.80
2019-04-10T11:30:18.670Z,35.30
2019-04-10T11:32:48.426Z,32.80
2019-04-10T11:35:17.529Z,33.50
2019-04-10T11:37:49.604Z,36.70
2019-04-10T11:40:18.082Z,37.30
2019-04-10T11:42:47.137Z,36.90
2019-04-10T11:45:18.478Z,36.80
2019-04-10T11:47:47.469Z,33.70
2019-04-10T11:57:49.726Z,34.30
2019-04-10T12:00:23.737Z,35.20
2019-04-10T12:02:52.878Z,36.30
2019-04-10T12:05:22.163Z,37.50
2019-04-10T12:08:20.991Z,37.60
2019-04-10T12:12:52.458Z,40.50
2019-04-10T12:15:21.207Z,40.60
2019-04-10T12:17:49.832Z,42.20
2019-04-10T12:20:18.824Z,42.10
2019-04-10T12:22:48.310Z,40.80
2019-04-10T12:25:17.203Z,39.20
2019-04-10T12:27:45.744Z,39.30
2019-04-10T12:30:15.297Z,38.00
2019-04-10T12:32:45.954Z,37.70
2019-04-10T12:35:15.155Z,38.60
2019-04-10T12:37:43.746Z,39.00
2019-04-10T12:40:13.941Z,39.20
2019-04-10T12:42:42.543Z,39.90
2019-04-10T12:45:11.966Z,39.80
2019-04-10T12:47:40.515Z,38.70
2019-04-10T12:50:09.322Z,40.70
2019-04-10T12:52:38.781Z,41.10
2019-04-10T12:55:08.125Z,40.80
2019-04-10T12:57:37.097Z,41.60
2019-04-10T13:00:09.702Z,41.60
2019-04-10T13:02:38.658Z,41.20
2019-04-10T13:05:07.591Z,41.00
2019-04-10T13:07:36.067Z,42.80
2019-04-10T13:10:06.847Z,42.50
2019-04-10T13:12:35.531Z,42.40
2019-04-10T13:15:07.437Z,42.60
2019-04-10T13:17:36.171Z,42.00
2019-04-10T13:20:10.037Z,41.60
2019-04-10T13:22:38.526Z,40.60
2019-04-10T13:25:08.225Z,43.00
2019-04-10T13:27:36.951Z,41.60
2019-04-10T13:30:12.600Z,41.40
2019-04-10T13:32:40.279Z,41.70
2019-04-10T13:35:10.313Z,41.10
2019-04-10T13:37:39.111Z,42.00
2019-04-10T13:40:08.118Z,42.10
2019-04-10T13:42:37.189Z,42.20
2019-04-10T13:45:07.973Z,41.70
2019-04-10T13:47:36.653Z,42.10
2019-04-10T13:50:08.886Z,42.20
2019-04-10T13:52:39.059Z,42.60
2019-04-10T13:55:08.895Z,42.20
2019-04-10T13:57:39.219Z,41.20
2019-04-10T14:00:11.288Z,41.60
2019-04-10T14:02:39.955Z,40.80
2019-04-10T14:05:11.620Z,42.30
2019-04-10T14:07:40.447Z,41.90
2019-04-10T14:10:10.568Z,44.20
2019-04-10T14:12:39.378Z,43.40
2019-04-10T14:15:09.737Z,43.70
2019-04-10T14:17:38.551Z,43.20
2019-04-10T14:20:07.909Z,44.00
2019-04-10T14:22:38.092Z,43.90
2019-04-10T14:25:09.640Z,44.20
2019-04-10T14:27:38.634Z,43.90
2019-04-10T14:30:11.323Z,43.90
2019-04-10T14:32:40.144Z,44.60
2019-04-10T14:35:10.121Z,44.40
2019-04-10T14:37:38.962Z,45.50
2019-04-10T14:40:10.051Z,45.90
2019-04-10T14:42:38.582Z,45.60
2019-04-10T14:45:07.522Z,45.30
2019-04-10T14:47:36.370Z,45.90
2019-04-10T14:50:07.377Z,45.60
2019-04-10T14:52:37.095Z,44.70
2019-04-10T14:55:06.318Z,45.40
2019-04-10T14:57:35.021Z,46.20
2019-04-10T15:00:08.949Z,46.50
2019-04-10T15:02:37.495Z,45.90
2019-04-10T15:05:10.052Z,45.90
2019-04-10T15:07:39.440Z,46.70
2019-04-10T15:10:09.414Z,45.90
2019-04-10T15:12:37.886Z,46.20
2019-04-10T15:15:06.523Z,46.00
2019-04-10T15:17:35.182Z,45.80
2019-04-10T15:20:04.899Z,47.40
2019-04-10T15:22:33.858Z,46.50
2019-04-10T15:25:05.070Z,45.80
2019-04-10T15:27:33.321Z,45.70
2019-04-10T15:30:02.118Z,45.60
2019-04-10T15:32:31.656Z,45.40
2019-04-10T15:35:00.342Z,44.80
2019-04-10T15:37:29.031Z,44.10
2019-04-10T15:39:58.085Z,44.20
2019-04-10T15:42:28.066Z,43.00
2019-04-10T15:44:56.739Z,43.90
2019-04-10T15:47:25.207Z,44.70
2019-04-10T15:49:53.767Z,43.80
2019-04-10T15:52:22.919Z,45.40
2019-04-10T15:54:53.434Z,44.50
2019-04-10T15:57:22.741Z,46.20
2019-04-10T15:59:52.436Z,45.80
2019-04-10T16:02:21.707Z,45.50
2019-04-10T16:04:51.049Z,44.90
2019-04-10T16:07:20.333Z,45.00
2019-04-10T16:09:52.987Z,45.80
2019-04-10T16:12:24.838Z,46.40
2019-04-10T16:14:53.479Z,47.00
2019-04-10T16:17:23.979Z,47.10
2019-04-10T16:19:54.474Z,47.20
2019-04-10T16:22:25.553Z,47.40
2019-04-10T16:24:55.473Z,47.90
2019-04-10T16:27:24.388Z,47.70
2019-04-10T16:29:53.164Z,47.90
2019-04-10T16:32:21.960Z,47.70
2019-04-10T16:34:51.174Z,47.70
2019-04-10T16:37:19.923Z,48.00
2019-04-10T16:39:58.599Z,48.00
2019-04-10T16:42:19.051Z,48.70
2019-04-10T16:44:47.702Z,48.30
2019-04-10T16:47:17.488Z,48.20
2019-04-10T16:49:46.793Z,48.40
2019-04-10T16:52:16.731Z,48.90
2019-04-10T16:54:45.706Z,49.70
2019-04-10T16:57:14.276Z,49.20
2019-04-10T16:59:42.767Z,49.80
2019-04-10T17:02:11.470Z,49.20
2019-04-10T17:04:39.979Z,49.40
2019-04-10T17:07:08.664Z,49.50
2019-04-10T17:09:37.247Z,49.10
2019-04-10T17:12:06.540Z,49.80
2019-04-10T17:14:35.658Z,49.50
2019-04-10T17:17:04.354Z,49.80
2019-04-10T17:19:45.550Z,49.70
2019-04-10T17:22:03.199Z,49.30
2019-04-10T17:24:31.710Z,49.60
2019-04-10T17:27:01.381Z,49.80
2019-04-10T17:29:31.254Z,50.10
2019-04-10T17:31:59.938Z,50.30
2019-04-10T17:34:28.663Z,51.00
2019-04-10T17:36:57.208Z,50.80
2019-04-10T17:39:27.071Z,51.10
2019-04-10T17:41:55.912Z,51.20
2019-04-10T17:44:25.588Z,51.60
2019-04-10T17:46:55.492Z,51.60
2019-04-10T17:49:25.595Z,52.00
2019-04-10T17:51:54.676Z,52.20
2019-04-10T17:54:42.969Z,52.60
2019-04-10T17:57:12.701Z,52.30
2019-04-10T17:59:42.496Z,52.30
2019-04-10T18:02:11.861Z,52.40
2019-04-10T18:04:40.430Z,53.10
2019-04-10T18:07:10.005Z,53.30
2019-04-10T18:09:38.990Z,53.80
2019-04-10T18:12:09.928Z,54.00
2019-04-10T18:14:40.872Z,54.00
2019-04-10T18:17:09.070Z,54.30
2019-04-10T18:19:38.605Z,54.80
2019-04-10T18:22:07.288Z,55.20
2019-04-10T18:24:35.943Z,56.00
2019-04-10T18:27:04.542Z,56.00
2019-04-10T18:29:33.062Z,55.90
2019-04-10T18:32:02.344Z,56.30
2019-04-10T18:34:31.264Z,57.00
2019-04-10T18:37:02.364Z,58.00
2019-04-10T18:39:30.424Z,59.10
2019-04-10T18:41:59.760Z,60.10
2019-04-10T18:44:29.050Z,62.20
2019-04-10T18:46:57.837Z,63.50
2019-04-10T18:49:27.450Z,63.80
2019-04-10T18:51:56.357Z,64.70
2019-04-10T18:54:25.015Z,66.10
2019-04-10T18:56:53.639Z,66.50
2019-04-10T18:59:40.678Z,65.60
2019-04-10T19:02:30.455Z,65.30
2019-04-10T19:05:16.112Z,65.20
2019-04-10T19:07:46.112Z,66.00
2019-04-10T19:10:14.980Z,66.60
2019-04-10T19:12:43.519Z,66.40
2019-04-10T19:15:12.751Z,65.70
2019-04-10T19:17:41.948Z,65.30
2019-04-10T19:20:11.150Z,65.30
2019-04-10T19:22:40.154Z,65.70
2019-04-10T19:25:10.395Z,65.90
2019-04-10T19:27:40.229Z,65.70
2019-04-10T19:30:11.033Z,65.50
2019-04-10T19:32:39.512Z,65.70
2019-04-10T19:35:08.286Z,64.60
2019-04-10T19:37:36.856Z,64.50
2019-04-10T19:40:07.254Z,64.60
2019-04-10T19:42:35.797Z,64.60
2019-04-10T19:45:06.286Z,64.60
2019-04-10T19:47:34.792Z,64.40
2019-04-10T19:50:03.594Z,64.20
2019-04-10T19:52:32.847Z,63.50
2019-04-10T19:55:01.484Z,63.10
2019-04-10T19:57:31.020Z,63.50
2019-04-10T19:59:59.986Z,63.40
2019-04-10T20:02:28.916Z,63.80
2019-04-10T20:04:57.413Z,64.50
2019-04-10T20:07:27.002Z,65.20
2019-04-10T20:09:56.886Z,65.50
2019-04-10T20:12:26.656Z,66.40
2019-04-10T20:14:55.382Z,66.20
2019-04-10T20:17:24.066Z,65.80
2019-04-10T20:19:55.664Z,66.20
2019-04-10T20:22:23.273Z,66.20
2019-04-10T20:24:51.954Z,65.90
2019-04-10T20:27:20.504Z,65.60
2019-04-10T20:29:49.031Z,66.20
2019-04-10T20:32:17.704Z,66.00
2019-04-10T20:34:47.464Z,66.40
2019-04-10T20:37:16.098Z,65.90
2019-04-10T20:39:45.445Z,66.60
2019-04-10T20:42:14.138Z,66.70
2019-04-10T20:44:43.044Z,66.90
2019-04-10T20:47:12.816Z,67.30
2019-04-10T20:49:42.531Z,67.00
2019-04-10T20:52:12.852Z,66.90
2019-04-10T20:54:41.275Z,67.40
2019-04-10T20:57:10.845Z,68.00
2019-04-10T20:59:40.406Z,68.10
2019-04-10T21:02:09.682Z,68.30
2019-04-10T21:04:39.534Z,68.50
2019-04-10T21:07:08.868Z,68.90
2019-04-10T21:09:37.467Z,68.90
2019-04-10T21:12:10.378Z,68.60
2019-04-10T21:14:36.391Z,69.20
2019-04-10T21:17:06.603Z,69.30
2019-04-10T21:19:35.549Z,70.10
2019-04-10T21:22:04.100Z,69.40
2019-04-10T21:24:33.603Z,69.70
2019-04-10T21:27:02.126Z,70.00
2019-04-10T21:29:47.687Z,70.30
2019-04-10T21:32:21.656Z,70.20
2019-04-10T21:34:52.023Z,69.80
2019-04-10T21:37:20.488Z,70.20
2019-04-10T21:39:49.954Z,70.70
2019-04-10T21:42:22.311Z,71.20
2019-04-10T21:44:49.219Z,70.70
2019-04-10T21:47:17.986Z,70.80
2019-04-10T21:49:46.478Z,71.60
2019-04-10T21:52:14.983Z,71.50
2019-04-10T21:54:49.646Z,71.90
2019-04-10T21:57:13.844Z,72.00
2019-04-10T21:59:43.104Z,71.70
2019-04-10T22:02:13.148Z,71.80
2019-04-10T22:04:41.887Z,72.00
2019-04-10T22:07:28.954Z,72.60
2019-04-10T22:09:59.472Z,72.50
2019-04-10T22:12:33.233Z,73.10
2019-04-10T22:15:00.204Z,73.20
2019-04-10T22:17:29.017Z,73.60
2019-04-10T22:19:57.729Z,73.60
2019-04-10T22:22:26.712Z,74.00
2019-04-10T22:24:55.422Z,74.10
2019-04-10T22:27:23.887Z,74.20
2019-04-10T22:29:52.446Z,73.90
2019-04-10T22:32:20.984Z,74.40
2019-04-10T22:34:50.508Z,74.00
2019-04-10T22:37:19.487Z,74.00
2019-04-10T22:39:48.256Z,74.70
2019-04-10T22:42:17.176Z,75.40
2019-04-10T22:44:47.179Z,76.10
2019-04-10T22:47:16.898Z,76.20
2019-04-10T22:49:45.506Z,76.00
2019-04-10T22:52:15.415Z,76.40
2019-04-10T22:54:44.366Z,77.00
2019-04-10T22:57:13.248Z,77.00
2019-04-10T22:59:42.474Z,77.40
2019-04-10T23:02:14.676Z,77.10
2019-04-10T23:04:42.906Z,76.70
2019-04-10T23:07:11.562Z,76.80
2019-04-10T23:09:40.282Z,76.40
2019-04-10T23:12:09.848Z,76.20
2019-04-10T23:14:38.703Z,76.50
2019-04-10T23:17:07.239Z,76.90
2019-04-10T23:19:36.342Z,75.80
2019-04-10T23:22:07.210Z,75.60
2019-04-10T23:24:35.958Z,75.80
2019-04-10T23:27:05.843Z,76.20
2019-04-10T23:29:34.468Z,76.80
2019-04-10T23:32:03.832Z,76.80
2019-04-10T23:34:32.613Z,76.90
2019-04-10T23:37:01.203Z,76.80
2019-04-10T23:39:30.371Z,77.30
2019-04-10T23:41:59.071Z,78.00
2019-04-10T23:44:27.650Z,77.80
2019-04-10T23:46:56.211Z,78.00
2019-04-10T23:49:25.599Z,78.30
2019-04-10T23:51:54.248Z,78.50
2019-04-10T23:54:22.826Z,78.40
2019-04-10T23:56:52.582Z,78.40
2019-04-10T23:59:21.179Z,78.50
